首页
METAR-TAF:

METAR-TAF

机场 :

Southwest Minnesota Regional Airport (Marshall/Ryan Field)

马歇尔, 明尼蘇達州, 美国

纬度: 44-27N, 经度: 095-49W, 海拔: 359米

当前天气观测

该预报发布于28分钟前的09:56 UTC
风速3节,风向北转东北
温度 -1°C
湿度 86%
气压 1024 hPa
能見度: 16.1公里
天空无云

METAR: KMML 150956Z AUTO 02003KT 10SM CLR M01/M03 A3024 RMK AO2 SLP255 T10061028 FZRANO

时间: 04:24 (10:24 UTC)


TAF: 丢失

超过4000个机场的气象观测和天气预报(METAR&TAF报告)。

可查询的气象台以黄色和红色小点在地图上表示。

将鼠标移到小点上方,可查看气象台名称。

然后点击查看天气观测和预报。

如需切换地图:点击带黑十字的绿色按钮放大地图;点击带横线的绿色按钮缩小地图;或者点击绿色箭头查看邻近地区的地图。


METAR-TAF: